createdAt,value
2023-02-05T00:06:08.993Z,1.55
2023-02-05T00:09:12.411Z,1.15
2023-02-05T00:12:15.699Z,1.20
2023-02-05T00:15:19.768Z,1.00
2023-02-05T00:18:23.018Z,1.13
2023-02-05T00:26:44.840Z,1.05
2023-02-05T00:29:48.397Z,1.17
2023-02-05T00:32:51.706Z,1.20
2023-02-05T00:35:54.951Z,1.27
2023-02-05T00:39:07.005Z,1.10
2023-02-05T00:42:14.679Z,1.10
2023-02-05T00:45:25.721Z,1.05
2023-02-05T00:48:29.407Z,1.33
2023-02-05T00:51:32.819Z,1.08
2023-02-05T00:54:36.242Z,0.95
2023-02-05T00:57:40.972Z,1.35
2023-02-05T01:00:44.592Z,1.65
2023-02-05T01:03:47.982Z,1.08
2023-02-05T01:06:51.386Z,0.63
2023-02-05T01:09:54.904Z,1.15
2023-02-05T01:12:59.734Z,0.85
2023-02-05T01:16:03.262Z,1.27
2023-02-05T01:19:06.618Z,1.20
2023-02-05T01:22:11.417Z,1.13
2023-02-05T01:25:15.164Z,1.10
2023-02-05T01:28:19.912Z,1.02
2023-02-05T01:31:25.082Z,1.40
2023-02-05T01:34:28.576Z,1.08
2023-02-05T01:37:32.072Z,1.25
2023-02-05T01:40:35.616Z,1.30
2023-02-05T01:43:40.929Z,1.05
2023-02-05T01:46:45.299Z,0.90
2023-02-05T01:49:52.969Z,1.08
2023-02-05T01:52:56.715Z,0.95
2023-02-05T01:56:02.107Z,1.00
2023-02-05T01:59:09.522Z,0.75
2023-02-05T02:02:13.408Z,0.85
2023-02-05T02:05:17.769Z,1.50
2023-02-05T02:08:21.601Z,1.23
2023-02-05T02:11:25.615Z,1.27
2023-02-05T02:14:32.817Z,1.30
2023-02-05T02:17:39.156Z,1.02
2023-02-05T02:20:43.789Z,1.20
2023-02-05T02:23:54.056Z,1.00
2023-02-05T02:27:19.896Z,0.88
2023-02-05T02:30:28.337Z,0.63
2023-02-05T02:33:37.181Z,0.98
2023-02-05T02:36:44.297Z,1.23
2023-02-05T02:39:57.320Z,1.05
2023-02-05T02:43:05.773Z,1.00
2023-02-05T02:46:15.394Z,1.30
2023-02-05T02:49:21.105Z,0.93
2023-02-05T02:52:25.822Z,1.15
2023-02-05T02:55:31.311Z,0.65
2023-02-05T02:58:37.418Z,1.52
2023-02-05T03:01:52.322Z,0.90
2023-02-05T03:04:58.239Z,1.25
2023-02-05T03:08:09.652Z,0.73
2023-02-05T03:11:15.186Z,2.25
2023-02-05T03:14:19.749Z,1.13
2023-02-05T03:17:26.462Z,0.98
2023-02-05T03:20:31.672Z,1.27
2023-02-05T03:23:35.251Z,0.80
2023-02-05T03:26:39.459Z,0.90
2023-02-05T03:29:53.357Z,1.02
2023-02-05T03:33:06.517Z,1.20
2023-02-05T03:36:15.034Z,1.10
2023-02-05T03:39:24.869Z,1.15
2023-02-05T03:42:35.004Z,1.10
2023-02-05T03:45:45.259Z,0.80
2023-02-05T03:48:56.693Z,0.88
2023-02-05T03:52:03.948Z,0.77
2023-02-05T03:55:10.146Z,0.70
2023-02-05T03:58:16.922Z,0.90
2023-02-05T04:01:20.878Z,0.80
2023-02-05T04:04:32.669Z,0.93
2023-02-05T04:07:36.095Z,1.00
2023-02-05T04:10:40.867Z,0.90
2023-02-05T04:13:44.348Z,0.82
2023-02-05T04:16:48.937Z,1.10
2023-02-05T04:19:53.874Z,1.00
2023-02-05T04:22:57.433Z,1.05
2023-02-05T04:26:02.080Z,0.70
2023-02-05T04:29:11.962Z,1.00
2023-02-05T04:32:20.361Z,1.02
2023-02-05T04:35:26.121Z,0.88
2023-02-05T04:38:29.490Z,0.70
2023-02-05T04:41:32.946Z,0.80
2023-02-05T04:44:36.462Z,0.93
2023-02-05T04:47:39.843Z,0.65
2023-02-05T04:50:44.750Z,0.95
2023-02-05T04:53:48.366Z,0.90
2023-02-05T04:56:51.800Z,1.42
2023-02-05T04:59:55.274Z,0.63
2023-02-05T05:02:58.738Z,0.40
2023-02-05T05:06:06.585Z,0.90
2023-02-05T05:09:09.998Z,0.90
2023-02-05T05:12:13.518Z,1.05
2023-02-05T05:15:16.915Z,0.73
2023-02-05T05:18:20.367Z,1.00
2023-02-05T05:21:25.137Z,0.77
2023-02-05T05:24:28.531Z,0.98
2023-02-05T05:27:32.025Z,1.42
2023-02-05T05:30:38.284Z,0.80
2023-02-05T05:33:41.966Z,0.90
2023-02-05T05:36:47.606Z,0.75
2023-02-05T05:40:08.749Z,0.63
2023-02-05T05:43:30.758Z,0.77
2023-02-05T05:46:34.256Z,0.90
2023-02-05T05:49:37.520Z,0.65
2023-02-05T05:52:42.403Z,0.90
2023-02-05T05:55:45.866Z,0.93
2023-02-05T05:58:49.573Z,0.80
2023-02-05T06:01:53.811Z,0.80
2023-02-05T06:04:57.211Z,0.57
2023-02-05T06:08:04.314Z,1.00
2023-02-05T06:11:07.705Z,1.08
2023-02-05T06:14:11.140Z,0.63
2023-02-05T06:17:14.721Z,0.90
2023-02-05T06:20:21.049Z,0.70
2023-02-05T06:23:26.099Z,0.80
2023-02-05T06:26:29.672Z,0.70
2023-02-05T06:29:35.838Z,0.95
2023-02-05T06:32:41.484Z,0.88
2023-02-05T06:35:45.469Z,1.13
2023-02-05T06:38:50.529Z,0.93
2023-02-05T06:41:54.099Z,1.00
2023-02-05T06:44:57.887Z,1.05
2023-02-05T06:48:02.719Z,1.15
2023-02-05T06:51:06.893Z,1.08
2023-02-05T06:54:11.927Z,1.00
2023-02-05T06:57:16.620Z,1.35
2023-02-05T07:00:20.922Z,1.40
2023-02-05T07:03:24.405Z,1.20
2023-02-05T07:06:31.154Z,1.02
2023-02-05T07:09:35.937Z,1.27
2023-02-05T07:12:39.385Z,1.20
2023-02-05T07:15:47.129Z,1.30
2023-02-05T07:18:52.857Z,1.35
2023-02-05T07:21:56.354Z,1.20
2023-02-05T07:25:04.114Z,1.13
2023-02-05T07:28:08.767Z,1.17
2023-02-05T07:31:15.051Z,1.15
2023-02-05T07:34:18.730Z,1.20
2023-02-05T07:37:27.169Z,1.00
2023-02-05T07:40:31.888Z,2.22
2023-02-05T07:43:35.424Z,1.08
2023-02-05T07:46:39.220Z,0.98
2023-02-05T07:49:42.773Z,1.30
2023-02-05T07:52:49.968Z,1.25
2023-02-05T07:55:55.143Z,1.77
2023-02-05T07:58:58.514Z,1.30
2023-02-05T08:02:29.386Z,1.30
2023-02-05T08:05:33.615Z,1.05
2023-02-05T08:08:37.268Z,1.10
2023-02-05T08:11:42.000Z,1.00
2023-02-05T08:18:19.593Z,1.50
2023-02-05T08:21:23.100Z,1.38
2023-02-05T08:24:38.950Z,1.15
2023-02-05T08:28:06.611Z,1.33
2023-02-05T08:32:00.642Z,1.55
2023-02-05T08:35:04.050Z,1.23
2023-02-05T08:38:53.051Z,1.67
2023-02-05T08:42:05.020Z,1.15
2023-02-05T08:45:12.937Z,1.15
2023-02-05T08:48:19.040Z,1.20
2023-02-05T08:51:25.297Z,0.98
2023-02-05T08:54:29.096Z,1.73
2023-02-05T08:57:32.615Z,1.55
2023-02-05T09:00:39.234Z,1.63
2023-02-05T09:03:45.488Z,1.23
2023-02-05T09:06:49.340Z,1.45
2023-02-05T09:09:53.000Z,1.10
2023-02-05T09:12:56.423Z,1.35
2023-02-05T09:16:01.404Z,1.40
2023-02-05T09:19:05.039Z,1.15
2023-02-05T09:22:10.793Z,1.33
2023-02-05T09:25:14.680Z,1.73
2023-02-05T09:28:23.251Z,1.20
2023-02-05T09:31:28.718Z,0.82
2023-02-05T09:34:37.483Z,1.60
2023-02-05T09:37:40.988Z,1.52
2023-02-05T09:40:49.804Z,1.63
2023-02-05T09:43:56.169Z,1.70
2023-02-05T09:47:05.771Z,1.50
2023-02-05T09:50:15.947Z,1.52
2023-02-05T09:53:24.490Z,1.17
2023-02-05T09:56:28.868Z,1.42
2023-02-05T09:59:35.995Z,1.98
2023-02-05T10:02:44.613Z,1.63
2023-02-05T10:05:55.458Z,1.42
2023-02-05T10:09:02.687Z,1.63
2023-02-05T10:12:21.502Z,1.40
2023-02-05T10:15:35.376Z,1.50
2023-02-05T10:22:50.899Z,1.50
2023-02-05T10:26:18.171Z,1.73
2023-02-05T10:29:54.463Z,1.67
2023-02-05T10:33:18.530Z,1.40
2023-02-05T10:36:31.405Z,1.30
2023-02-05T10:39:38.665Z,1.48
2023-02-05T10:42:54.512Z,1.63
2023-02-05T10:46:10.536Z,1.30
2023-02-05T10:49:17.289Z,1.60
2023-02-05T10:52:33.599Z,1.55
2023-02-05T10:55:43.742Z,1.13
2023-02-05T10:59:05.112Z,2.13
2023-02-05T11:02:10.125Z,1.60
2023-02-05T11:05:18.542Z,2.38
2023-02-05T11:08:42.160Z,1.80
2023-02-05T11:11:45.797Z,1.95
2023-02-05T11:15:03.886Z,1.77
2023-02-05T11:18:36.373Z,1.52
2023-02-05T11:21:50.885Z,1.73
2023-02-05T11:25:11.901Z,1.45
2023-02-05T11:28:30.223Z,1.38
2023-02-05T11:31:36.671Z,2.10
2023-02-05T11:34:43.549Z,1.33
2023-02-05T11:38:02.512Z,1.92
2023-02-05T11:41:11.118Z,2.28
2023-02-05T11:44:26.089Z,1.98
2023-02-05T11:47:49.051Z,1.42
2023-02-05T11:51:05.979Z,2.08
2023-02-05T11:54:53.819Z,1.77
2023-02-05T12:02:36.815Z,1.60
2023-02-05T12:06:25.824Z,1.60
2023-02-05T12:13:58.421Z,2.35
2023-02-05T12:17:06.021Z,1.75
2023-02-05T12:20:27.986Z,2.05
2023-02-05T12:23:44.520Z,1.58
2023-02-05T12:26:56.695Z,2.25
2023-02-05T12:30:04.963Z,2.83
2023-02-05T12:33:32.300Z,1.83
2023-02-05T12:36:43.843Z,2.17
2023-02-05T12:40:49.004Z,2.42
2023-02-05T12:44:39.190Z,2.17
2023-02-05T12:47:57.940Z,2.47
2023-02-05T12:51:33.366Z,2.25
2023-02-05T12:54:53.665Z,2.47
2023-02-05T12:57:59.204Z,2.15
2023-02-05T13:01:05.914Z,2.55
2023-02-05T13:08:45.204Z,2.03
2023-02-05T13:11:51.088Z,1.35
2023-02-05T13:15:04.368Z,1.98
2023-02-05T13:18:08.768Z,1.77
2023-02-05T13:21:46.583Z,1.77
2023-02-05T13:30:24.956Z,2.28
2023-02-05T13:33:28.356Z,1.88
2023-02-05T13:37:00.355Z,1.80
2023-02-05T13:43:43.129Z,1.52
2023-02-05T13:47:01.318Z,1.77
2023-02-05T13:50:15.582Z,1.52
2023-02-05T13:53:28.035Z,2.15
2023-02-05T13:57:17.972Z,2.20
2023-02-05T14:00:22.862Z,1.85
2023-02-05T14:04:11.551Z,1.85
2023-02-05T14:12:00.468Z,1.80
2023-02-05T14:16:02.457Z,1.77
2023-02-05T14:19:13.429Z,2.22
2023-02-05T14:22:47.038Z,2.00
2023-02-05T14:26:05.350Z,1.63
2023-02-05T14:32:52.438Z,1.90
2023-02-05T14:35:58.220Z,2.00
2023-02-05T14:39:14.046Z,1.85
2023-02-05T15:49:22.554Z,1.95
2023-02-05T15:52:34.310Z,1.95
2023-02-05T15:55:45.427Z,1.70
2023-02-05T16:02:25.095Z,2.78
2023-02-05T16:05:31.314Z,2.53
2023-02-05T16:08:50.352Z,2.42
2023-02-05T16:12:05.923Z,2.97
2023-02-05T16:15:15.940Z,2.55
2023-02-05T16:18:31.366Z,2.50
2023-02-05T16:21:46.413Z,1.95
2023-02-05T16:28:21.448Z,2.35
2023-02-05T16:31:27.260Z,2.75
2023-02-05T16:34:33.831Z,2.78
2023-02-05T16:37:38.119Z,3.22
2023-02-05T16:40:43.633Z,2.60
2023-02-05T16:43:47.834Z,2.70
2023-02-05T16:47:06.652Z,2.70
2023-02-05T16:50:25.116Z,2.60
2023-02-05T16:53:44.261Z,2.25
2023-02-05T16:57:00.052Z,2.80
2023-02-05T17:00:04.380Z,2.75
2023-02-05T17:03:15.822Z,3.25
2023-02-05T17:06:21.023Z,2.42
2023-02-05T17:09:32.290Z,2.92
2023-02-05T17:12:55.990Z,2.60
2023-02-05T17:16:19.672Z,2.75
2023-02-05T17:19:24.550Z,2.35
2023-02-05T17:22:28.360Z,2.50
2023-02-05T17:25:36.818Z,2.63
2023-02-05T17:28:43.857Z,2.35
2023-02-05T17:31:47.569Z,2.50
2023-02-05T17:34:54.457Z,2.33
2023-02-05T17:37:58.184Z,1.52
2023-02-05T17:41:46.502Z,2.22
2023-02-05T17:44:51.352Z,2.47
2023-02-05T17:48:11.613Z,1.95
2023-02-05T17:51:25.718Z,2.60
2023-02-05T17:54:29.855Z,2.30
2023-02-05T17:57:35.427Z,2.30
2023-02-05T18:00:50.905Z,1.90
2023-02-05T18:03:59.883Z,2.03
2023-02-05T18:07:03.413Z,2.42
2023-02-05T18:10:07.606Z,2.25
2023-02-05T18:13:12.394Z,2.45
2023-02-05T18:16:15.961Z,2.80
2023-02-05T18:19:19.390Z,2.95
2023-02-05T18:22:22.893Z,3.08
2023-02-05T18:25:26.652Z,3.10
2023-02-05T18:28:31.465Z,2.88
2023-02-05T18:31:35.176Z,2.45
2023-02-05T18:34:39.859Z,2.47
2023-02-05T18:37:43.548Z,2.13
2023-02-05T18:40:46.983Z,1.75
2023-02-05T18:43:54.308Z,2.17
2023-02-05T18:46:58.254Z,2.25
2023-02-05T18:50:02.344Z,2.67
2023-02-05T18:53:06.547Z,2.38
2023-02-05T18:56:10.826Z,2.10
2023-02-05T18:59:18.032Z,2.38
2023-02-05T19:02:21.474Z,2.03
2023-02-05T19:05:25.719Z,1.85
2023-02-05T19:08:29.131Z,1.88
2023-02-05T19:11:33.991Z,2.60
2023-02-05T19:14:38.877Z,2.33
2023-02-05T19:17:42.304Z,2.70
2023-02-05T19:20:48.555Z,2.63
2023-02-05T19:23:52.562Z,3.05
2023-02-05T19:26:58.883Z,2.80
2023-02-05T19:30:03.711Z,2.70
2023-02-05T19:33:07.799Z,2.88
2023-02-05T19:36:12.195Z,3.40
2023-02-05T19:39:16.072Z,3.10
2023-02-05T19:42:19.554Z,3.33
2023-02-05T19:45:24.276Z,3.25
2023-02-05T19:48:30.452Z,2.92
2023-02-05T19:51:34.706Z,3.50
2023-02-05T19:54:38.144Z,3.58
2023-02-05T19:57:42.698Z,3.47
2023-02-05T20:00:48.959Z,3.38
2023-02-05T20:03:52.969Z,3.42
2023-02-05T20:06:57.038Z,3.13
2023-02-05T20:10:00.456Z,3.75
2023-02-05T20:13:03.853Z,3.30
2023-02-05T20:16:10.703Z,4.13
2023-02-05T20:19:15.297Z,4.88
2023-02-05T20:22:19.952Z,4.38
2023-02-05T20:25:23.294Z,4.28
2023-02-05T20:28:27.440Z,3.90
2023-02-05T20:31:34.837Z,3.92
2023-02-05T20:34:40.632Z,4.05
2023-02-05T20:37:44.035Z,4.57
2023-02-05T20:40:47.380Z,4.15
2023-02-05T20:43:50.954Z,4.18
2023-02-05T20:46:55.934Z,4.03
2023-02-05T20:49:59.399Z,3.70
2023-02-05T20:53:02.793Z,4.05
2023-02-05T20:56:06.657Z,4.50
2023-02-05T20:59:10.867Z,4.63
2023-02-05T21:02:15.791Z,4.05
2023-02-05T21:05:19.180Z,4.28
2023-02-05T21:08:22.579Z,4.35
2023-02-05T21:11:26.728Z,4.45
2023-02-05T21:14:30.162Z,4.15
2023-02-05T21:17:34.934Z,5.00
2023-02-05T21:20:38.311Z,4.28
2023-02-05T21:23:42.068Z,5.47
2023-02-05T21:26:46.368Z,5.18
2023-02-05T21:29:50.884Z,4.88
2023-02-05T21:32:55.679Z,5.45
2023-02-05T21:35:59.196Z,5.40
2023-02-05T21:39:02.572Z,5.63
2023-02-05T21:42:05.883Z,5.50
2023-02-05T21:45:09.833Z,5.65
2023-02-05T21:48:14.599Z,5.50
2023-02-05T21:51:19.682Z,6.45
2023-02-05T21:54:25.641Z,6.25
2023-02-05T21:57:29.401Z,6.43
2023-02-05T22:00:33.117Z,7.03
2023-02-05T22:03:37.941Z,5.07
2023-02-05T22:06:41.727Z,5.95
2023-02-05T22:09:45.134Z,6.43
2023-02-05T22:12:48.469Z,6.28
2023-02-05T22:15:51.829Z,6.38
2023-02-05T22:18:57.318Z,7.07
2023-02-05T22:22:00.721Z,6.50
2023-02-05T22:25:04.241Z,6.82
2023-02-05T22:28:07.867Z,6.95
2023-02-05T22:31:12.236Z,7.28
2023-02-05T22:34:16.982Z,6.50
2023-02-05T22:37:20.289Z,7.20
2023-02-05T22:40:23.750Z,6.70
2023-02-05T22:43:27.449Z,7.32
2023-02-05T22:46:31.869Z,6.38
2023-02-05T22:49:36.667Z,6.53
2023-02-05T22:52:39.973Z,6.25
2023-02-05T22:55:43.375Z,7.30
2023-02-05T22:58:47.894Z,7.13
2023-02-05T23:01:52.016Z,6.43
2023-02-05T23:04:56.958Z,7.10
2023-02-05T23:08:00.347Z,6.85
2023-02-05T23:11:06.466Z,6.80
2023-02-05T23:14:09.958Z,5.95
2023-02-05T23:17:13.371Z,6.97
2023-02-05T23:20:18.093Z,6.43
2023-02-05T23:23:21.492Z,5.60
2023-02-05T23:26:25.777Z,6.97
2023-02-05T23:29:29.236Z,7.15
2023-02-05T23:32:32.519Z,6.47
2023-02-05T23:35:43.154Z,5.65
2023-02-05T23:38:46.805Z,6.00
2023-02-05T23:41:50.101Z,7.35
2023-02-05T23:44:54.136Z,6.13
2023-02-05T23:47:57.727Z,6.28
2023-02-05T23:51:02.477Z,5.78
2023-02-05T23:54:06.758Z,5.75
2023-02-05T23:57:12.142Z,6.40
